createdAt,value
2019-04-21T00:00:06.265Z,12.93
2019-04-21T00:02:35.778Z,14.13
2019-04-21T00:05:24.937Z,13.37
2019-04-21T00:08:05.140Z,11.97
2019-04-21T00:10:30.155Z,12.40
2019-04-21T00:12:54.775Z,14.37
2019-04-21T00:15:22.994Z,12.77
2019-04-21T00:17:43.612Z,12.93
2019-04-21T00:20:23.851Z,12.50
2019-04-21T00:22:58.813Z,12.00
2019-04-21T00:25:31.035Z,11.47
2019-04-21T00:28:09.301Z,12.37
2019-04-21T00:30:59.075Z,11.47
2019-04-21T00:33:15.806Z,11.33
2019-04-21T00:35:45.487Z,11.47
2019-04-21T00:38:32.354Z,13.27
2019-04-21T00:41:00.013Z,13.07
2019-04-21T00:43:27.981Z,15.00
2019-04-21T00:45:55.665Z,14.53
2019-04-21T00:48:36.436Z,13.27
2019-04-21T00:53:52.201Z,14.17
2019-04-21T00:56:34.044Z,13.80
2019-04-21T00:58:46.283Z,14.63
2019-04-21T01:01:21.818Z,13.10
2019-04-21T01:03:55.026Z,12.97
2019-04-21T01:06:26.737Z,12.80
2019-04-21T01:08:55.619Z,12.00
2019-04-21T01:11:28.166Z,12.50
2019-04-21T01:14:00.726Z,12.13
2019-04-21T01:16:27.008Z,11.93
2019-04-21T01:18:55.272Z,12.03
2019-04-21T01:21:14.082Z,11.90
2019-04-21T01:23:40.286Z,11.70
2019-04-21T01:26:25.339Z,12.10
2019-04-21T01:29:00.067Z,12.63
2019-04-21T01:31:29.993Z,12.17
2019-04-21T01:34:04.719Z,12.07
2019-04-21T01:36:29.845Z,12.50
2019-04-21T01:39:09.342Z,12.57
2019-04-21T01:41:41.607Z,11.50
2019-04-21T01:44:07.536Z,12.37
2019-04-21T01:46:33.725Z,12.87
2019-04-21T01:49:06.776Z,12.20
2019-04-21T01:51:47.945Z,13.97
2019-04-21T01:54:24.630Z,12.20
2019-04-21T01:56:56.945Z,12.43
2019-04-21T01:59:23.477Z,13.10
2019-04-21T02:02:00.405Z,13.03
2019-04-21T02:04:37.000Z,12.23
2019-04-21T02:07:03.236Z,12.60
2019-04-21T02:09:38.283Z,13.30
2019-04-21T02:12:11.969Z,12.23
2019-04-21T02:14:45.659Z,13.17
2019-04-21T02:17:14.639Z,12.80
2019-04-21T02:19:36.036Z,12.57
2019-04-21T02:22:10.730Z,13.30
2019-04-21T02:24:49.615Z,13.87
2019-04-21T02:27:22.235Z,13.13
2019-04-21T02:29:47.388Z,13.60
2019-04-21T02:32:37.527Z,13.83
2019-04-21T02:35:20.858Z,14.10
2019-04-21T02:42:43.208Z,13.40
2019-04-21T02:47:57.250Z,13.83
2019-04-21T02:50:13.409Z,14.93
2019-04-21T02:52:55.450Z,15.73
2019-04-21T02:55:11.595Z,15.83
2019-04-21T02:57:47.838Z,14.70
2019-04-21T03:00:30.270Z,15.93
2019-04-21T03:03:24.312Z,14.80
2019-04-21T03:06:06.118Z,16.00
2019-04-21T03:11:14.501Z,16.33
2019-04-21T03:13:47.265Z,17.20
2019-04-21T03:16:23.565Z,15.77
2019-04-21T03:21:20.450Z,17.17
2019-04-21T03:23:56.283Z,15.73
2019-04-21T03:28:54.171Z,16.00
2019-04-21T03:34:28.945Z,15.77
2019-04-21T03:38:57.222Z,17.13
2019-04-21T03:41:30.560Z,17.03
2019-04-21T03:43:59.164Z,16.77
2019-04-21T03:54:00.607Z,18.60
2019-04-21T04:02:01.858Z,18.67
2019-04-21T04:04:55.133Z,18.33
2019-04-21T04:08:17.790Z,18.40
2019-04-21T04:10:24.477Z,18.77
2019-04-21T04:12:57.111Z,17.80
2019-04-21T04:15:31.167Z,18.83
2019-04-21T04:17:54.356Z,19.43
2019-04-21T04:20:28.138Z,18.67
2019-04-21T04:28:08.589Z,18.60
2019-04-21T04:30:32.008Z,18.10
2019-04-21T04:32:57.405Z,18.10
2019-04-21T04:35:46.199Z,18.97
2019-04-21T04:40:51.367Z,17.50
2019-04-21T04:43:18.649Z,18.07
2019-04-21T04:48:20.352Z,18.50
2019-04-21T04:51:03.899Z,18.33
2019-04-21T04:55:54.700Z,17.03
2019-04-21T04:58:29.843Z,17.17
2019-04-21T05:03:40.163Z,17.23
2019-04-21T05:06:37.430Z,15.60
2019-04-21T05:09:03.504Z,15.13
2019-04-21T05:11:44.555Z,13.20
2019-04-21T05:14:02.255Z,12.07
2019-04-21T05:16:36.303Z,12.63
2019-04-21T05:19:06.514Z,11.60
2019-04-21T05:21:34.686Z,11.40
2019-04-21T05:23:48.456Z,11.93
2019-04-21T05:26:14.410Z,12.20
2019-04-21T05:28:44.544Z,12.80
2019-04-21T05:31:45.029Z,12.17
2019-04-21T05:34:16.920Z,13.40
2019-04-21T05:36:56.525Z,13.00
2019-04-21T05:39:33.621Z,12.00
2019-04-21T05:41:59.179Z,14.33
2019-04-21T05:44:54.535Z,14.47
2019-04-21T05:47:20.759Z,15.33
2019-04-21T05:49:49.870Z,17.20
2019-04-21T05:52:19.868Z,15.57
2019-04-21T05:54:59.054Z,14.67
2019-04-21T05:57:20.606Z,14.30
2019-04-21T05:59:57.555Z,14.60
2019-04-21T06:02:44.970Z,14.93
2019-04-21T06:07:28.477Z,14.03
2019-04-21T06:09:59.769Z,13.10
2019-04-21T06:12:35.838Z,15.57
2019-04-21T06:15:26.570Z,11.73
2019-04-21T06:17:35.078Z,11.43
2019-04-21T06:20:05.695Z,11.23
2019-04-21T06:22:38.709Z,11.70
2019-04-21T06:25:39.453Z,11.90
2019-04-21T06:27:37.745Z,13.17
2019-04-21T06:30:10.675Z,13.50
2019-04-21T06:32:56.707Z,13.17
2019-04-21T06:36:21.561Z,11.90
2019-04-21T06:44:09.559Z,12.37
2019-04-21T06:49:02.779Z,11.73
2019-04-21T06:51:48.352Z,12.60
2019-04-21T06:54:09.436Z,12.47
2019-04-21T06:56:41.214Z,11.53
2019-04-21T06:59:20.814Z,12.07
2019-04-21T07:01:56.650Z,10.57
2019-04-21T07:04:18.544Z,9.47
2019-04-21T07:09:20.173Z,9.77
2019-04-21T07:11:44.442Z,11.20
2019-04-21T07:14:28.086Z,10.93
2019-04-21T07:16:51.054Z,10.70
2019-04-21T07:21:53.932Z,8.87
2019-04-21T07:24:25.104Z,8.57
2019-04-21T07:26:55.357Z,8.00
2019-04-21T07:29:28.317Z,7.60
2019-04-21T07:32:02.672Z,8.03
2019-04-21T07:39:27.142Z,7.37
2019-04-21T07:41:53.982Z,7.43
2019-04-21T07:44:28.730Z,7.67
2019-04-21T07:46:55.453Z,6.80
2019-04-21T07:49:59.072Z,6.80
2019-04-21T07:52:49.003Z,6.60
2019-04-21T07:57:37.599Z,6.13
2019-04-21T08:02:52.397Z,5.70
2019-04-21T08:05:20.021Z,5.97
2019-04-21T08:07:52.067Z,5.73
2019-04-21T08:10:15.706Z,5.90
2019-04-21T08:12:47.753Z,5.70
2019-04-21T08:17:55.039Z,5.90
2019-04-21T08:20:25.930Z,5.97
2019-04-21T08:22:58.775Z,5.83
2019-04-21T08:25:30.759Z,6.10
2019-04-21T08:28:01.503Z,5.60
2019-04-21T08:30:32.121Z,5.97
2019-04-21T08:33:14.375Z,4.90
2019-04-21T08:36:01.157Z,5.30
2019-04-21T08:38:10.640Z,6.23
2019-04-21T08:43:21.816Z,5.07
2019-04-21T08:45:46.935Z,4.83
2019-04-21T08:48:18.183Z,4.73
2019-04-21T08:50:58.649Z,4.53
2019-04-21T08:53:20.865Z,4.83
2019-04-21T08:56:10.040Z,3.97
2019-04-21T08:59:03.795Z,4.17
2019-04-21T09:01:43.040Z,4.27
2019-04-21T09:04:15.586Z,3.93
2019-04-21T09:06:58.977Z,3.47
2019-04-21T09:09:16.482Z,3.27
2019-04-21T09:11:50.890Z,2.87
2019-04-21T09:14:20.780Z,2.77
2019-04-21T09:16:47.732Z,2.70
2019-04-21T09:19:33.786Z,2.20
2019-04-21T09:21:55.143Z,2.80
2019-04-21T09:24:29.446Z,2.90
2019-04-21T09:26:54.207Z,2.80
2019-04-21T09:29:19.507Z,3.57
2019-04-21T09:31:42.886Z,2.97
2019-04-21T09:34:20.032Z,3.00
2019-04-21T09:36:46.722Z,2.70
2019-04-21T09:39:18.416Z,2.87
2019-04-21T09:41:44.960Z,3.10
2019-04-21T09:44:22.125Z,3.50
2019-04-21T09:46:50.704Z,3.50
2019-04-21T09:49:22.483Z,2.60
2019-04-21T09:51:50.513Z,3.90
2019-04-21T09:54:26.033Z,2.70
2019-04-21T09:56:57.681Z,3.07
2019-04-21T09:59:29.061Z,3.20
2019-04-21T10:02:04.862Z,3.00
2019-04-21T10:04:24.845Z,2.63
2019-04-21T10:06:54.508Z,3.30
2019-04-21T10:09:24.549Z,2.50
2019-04-21T10:11:54.890Z,2.70
2019-04-21T10:14:26.162Z,2.53
2019-04-21T10:17:33.278Z,3.10
2019-04-21T10:20:03.236Z,2.70
2019-04-21T10:22:33.199Z,2.87
2019-04-21T10:25:02.974Z,2.97
2019-04-21T10:27:32.766Z,2.60
2019-04-21T10:30:03.698Z,2.33
2019-04-21T10:32:34.391Z,2.70
2019-04-21T10:35:03.788Z,2.63
2019-04-21T10:37:45.534Z,2.73
2019-04-21T10:40:05.366Z,2.67
2019-04-21T10:42:35.457Z,2.90
2019-04-21T10:45:05.176Z,2.80
2019-04-21T10:47:34.645Z,3.13
2019-04-21T10:50:04.556Z,3.00
2019-04-21T10:52:53.276Z,2.70
2019-04-21T10:55:41.886Z,2.97
2019-04-21T10:58:09.017Z,3.00
2019-04-21T11:00:39.746Z,2.93
2019-04-21T11:03:29.072Z,3.20
2019-04-21T11:06:00.914Z,2.83
2019-04-21T11:08:35.695Z,3.13
2019-04-21T11:11:01.784Z,3.03
2019-04-21T11:13:32.623Z,2.67
2019-04-21T11:16:03.284Z,3.00
2019-04-21T11:18:33.979Z,3.70
2019-04-21T11:21:03.301Z,3.03
2019-04-21T11:23:33.185Z,3.23
2019-04-21T11:26:02.612Z,4.10
2019-04-21T11:28:31.769Z,4.00
2019-04-21T11:31:02.678Z,4.03
2019-04-21T11:33:33.409Z,5.20
2019-04-21T11:36:03.584Z,3.60
2019-04-21T11:38:58.426Z,3.43
2019-04-21T11:41:11.927Z,3.50
2019-04-21T11:43:41.633Z,2.83
2019-04-21T11:46:12.777Z,2.90
2019-04-21T11:48:42.198Z,2.50
2019-04-21T11:51:11.365Z,2.90
2019-04-21T11:53:41.333Z,2.27
2019-04-21T11:56:10.570Z,2.63
2019-04-21T11:58:41.480Z,2.93
2019-04-21T12:01:11.641Z,2.20
2019-04-21T12:03:41.994Z,2.40
2019-04-21T12:06:11.434Z,2.50
2019-04-21T12:08:45.732Z,2.80
2019-04-21T12:11:11.617Z,2.37
2019-04-21T12:13:42.352Z,3.03
2019-04-21T12:16:12.865Z,2.60
2019-04-21T12:18:42.973Z,2.30
2019-04-21T12:21:13.503Z,2.70
2019-04-21T12:23:43.030Z,2.90
2019-04-21T12:26:13.791Z,3.00
2019-04-21T12:28:43.903Z,2.40
2019-04-21T12:31:43.405Z,2.47
2019-04-21T12:34:14.192Z,2.53
2019-04-21T12:36:43.900Z,2.67
2019-04-21T12:39:14.965Z,2.77
2019-04-21T12:41:46.394Z,2.37
2019-04-21T12:44:15.943Z,2.60
2019-04-21T12:46:45.596Z,2.30
2019-04-21T12:49:15.920Z,2.20
2019-04-21T12:51:46.125Z,2.50
2019-04-21T12:54:15.558Z,2.20
2019-04-21T12:56:45.676Z,2.33
2019-04-21T12:59:15.097Z,2.30
2019-04-21T13:01:45.274Z,2.60
2019-04-21T13:04:15.622Z,2.50
2019-04-21T13:06:45.727Z,2.63
2019-04-21T13:09:19.803Z,2.67
2019-04-21T13:11:48.630Z,2.77
2019-04-21T13:14:18.267Z,2.40
2019-04-21T13:16:48.100Z,2.30
2019-04-21T13:19:17.676Z,2.83
2019-04-21T13:21:47.928Z,2.43
2019-04-21T13:24:17.883Z,2.30
2019-04-21T13:26:55.638Z,2.20
2019-04-21T13:29:19.027Z,2.00
2019-04-21T13:31:48.413Z,2.10
2019-04-21T13:34:18.048Z,2.47
2019-04-21T13:36:49.837Z,2.20
2019-04-21T13:40:01.561Z,2.60
2019-04-21T13:42:19.203Z,2.10
2019-04-21T13:44:41.325Z,2.23
2019-04-21T13:47:12.408Z,2.27
2019-04-21T13:49:43.384Z,2.60
2019-04-21T13:52:12.988Z,2.30
2019-04-21T13:54:43.271Z,2.50
2019-04-21T13:57:12.769Z,2.53
2019-04-21T13:59:44.494Z,2.27
2019-04-21T14:02:13.805Z,2.13
2019-04-21T14:04:45.281Z,2.60
2019-04-21T14:07:14.621Z,2.30
2019-04-21T14:09:54.831Z,2.73
2019-04-21T14:12:17.201Z,2.40
2019-04-21T14:14:46.531Z,2.40
2019-04-21T14:17:16.963Z,2.50
2019-04-21T14:19:46.681Z,2.53
2019-04-21T14:22:18.091Z,2.60
2019-04-21T14:24:48.000Z,2.47
2019-04-21T14:27:18.501Z,2.77
2019-04-21T14:29:49.137Z,2.70
2019-04-21T14:32:18.538Z,2.30
2019-04-21T14:34:50.235Z,2.20
2019-04-21T14:37:20.452Z,2.30
2019-04-21T14:39:57.815Z,2.40
2019-04-21T14:42:22.182Z,2.40
2019-04-21T14:44:52.251Z,2.47
2019-04-21T14:47:46.354Z,2.13
2019-04-21T14:50:42.164Z,2.50
2019-04-21T14:53:16.200Z,2.40
2019-04-21T14:55:47.104Z,3.00
2019-04-21T14:58:17.227Z,2.50
2019-04-21T15:00:58.033Z,2.33
2019-04-21T15:03:27.804Z,2.60
2019-04-21T15:05:57.723Z,2.20
2019-04-21T15:08:27.546Z,2.77
2019-04-21T15:10:56.936Z,2.50
2019-04-21T15:13:26.318Z,2.60
2019-04-21T15:15:56.301Z,2.60
2019-04-21T15:18:26.378Z,3.20
2019-04-21T15:20:57.394Z,3.40
2019-04-21T15:23:28.657Z,2.50
2019-04-21T15:25:58.013Z,2.77
2019-04-21T15:28:31.610Z,2.47
2019-04-21T15:31:02.907Z,2.70
2019-04-21T15:33:34.962Z,2.40
2019-04-21T15:36:07.058Z,3.03
2019-04-21T15:38:40.146Z,3.00
2019-04-21T15:41:11.308Z,2.53
2019-04-21T15:43:42.876Z,2.70
2019-04-21T15:46:13.064Z,2.53
2019-04-21T15:48:44.652Z,3.00
2019-04-21T15:51:14.075Z,2.70
2019-04-21T15:53:43.897Z,2.77
2019-04-21T15:56:24.586Z,2.70
2019-04-21T15:59:01.779Z,3.63
2019-04-21T16:02:02.746Z,3.57
2019-04-21T16:04:32.664Z,8.37
2019-04-21T16:07:03.662Z,4.00
2019-04-21T16:09:35.887Z,3.37
2019-04-21T16:12:04.544Z,2.63
2019-04-21T16:14:34.541Z,2.63
2019-04-21T16:17:05.373Z,2.40
2019-04-21T16:19:36.360Z,2.50
2019-04-21T16:22:06.434Z,2.27
2019-04-21T16:24:37.677Z,2.60
2019-04-21T16:27:10.358Z,2.10
2019-04-21T16:29:39.511Z,2.47
2019-04-21T16:32:09.140Z,2.50
2019-04-21T16:34:47.151Z,2.83
2019-04-21T16:37:09.813Z,2.33
2019-04-21T16:39:39.111Z,2.37
2019-04-21T16:42:10.157Z,2.67
2019-04-21T16:44:40.888Z,2.70
2019-04-21T16:47:11.727Z,2.50
2019-04-21T16:49:41.822Z,2.37
2019-04-21T16:52:18.299Z,2.53
2019-04-21T16:54:51.804Z,2.37
2019-04-21T16:57:33.462Z,2.70
2019-04-21T17:00:06.726Z,2.40
2019-04-21T17:02:36.696Z,2.20
2019-04-21T17:05:06.760Z,2.57
2019-04-21T17:07:36.776Z,2.17
2019-04-21T17:10:06.573Z,2.30
2019-04-21T17:12:37.390Z,2.57
2019-04-21T17:15:22.558Z,2.30
2019-04-21T17:18:00.752Z,2.73
2019-04-21T17:20:19.363Z,2.60
2019-04-21T17:22:41.750Z,2.60
2019-04-21T17:25:11.468Z,2.33
2019-04-21T17:27:41.199Z,3.20
2019-04-21T17:30:10.943Z,2.77
2019-04-21T17:32:46.954Z,2.97
2019-04-21T17:35:12.372Z,2.40
2019-04-21T17:37:42.402Z,2.73
2019-04-21T17:40:13.459Z,2.77
2019-04-21T17:42:51.112Z,2.53
2019-04-21T17:45:15.328Z,2.80
2019-04-21T17:47:52.469Z,2.50
2019-04-21T17:50:27.606Z,2.70
2019-04-21T17:53:06.491Z,5.47
2019-04-21T17:55:36.924Z,2.87
2019-04-21T17:58:25.012Z,3.50
2019-04-21T18:03:42.119Z,3.67
2019-04-21T18:05:55.927Z,3.70
2019-04-21T18:08:29.466Z,4.47
2019-04-21T18:10:56.946Z,4.60
2019-04-21T18:13:19.202Z,4.03
2019-04-21T18:15:57.212Z,4.70
2019-04-21T18:18:16.843Z,5.40
2019-04-21T18:20:53.720Z,5.30
2019-04-21T18:23:54.857Z,5.03
2019-04-21T18:26:34.590Z,5.80
2019-04-21T18:28:52.041Z,5.63
2019-04-21T18:31:20.892Z,6.47
2019-04-21T18:34:04.953Z,6.40
2019-04-21T18:36:41.612Z,6.60
2019-04-21T18:39:40.622Z,6.67
2019-04-21T18:42:18.669Z,7.90
2019-04-21T18:45:32.719Z,8.00
2019-04-21T18:47:53.719Z,6.97
2019-04-21T18:50:29.369Z,7.90
2019-04-21T18:53:14.461Z,7.90
2019-04-21T18:55:39.687Z,7.70
2019-04-21T18:58:05.254Z,7.23
2019-04-21T19:00:36.996Z,7.90
2019-04-21T19:03:08.685Z,8.20
2019-04-21T19:05:39.816Z,9.23
2019-04-21T19:08:25.844Z,9.27
2019-04-21T19:11:04.028Z,9.00
2019-04-21T19:16:22.578Z,10.97
2019-04-21T19:18:51.689Z,12.97
2019-04-21T19:21:03.038Z,13.70
2019-04-21T19:23:45.248Z,12.43
2019-04-21T19:26:19.023Z,11.80
2019-04-21T19:28:41.035Z,12.23
2019-04-21T19:31:11.323Z,12.13
2019-04-21T19:33:34.635Z,12.03
2019-04-21T19:35:51.010Z,12.13
2019-04-21T19:38:30.646Z,10.83
2019-04-21T19:41:10.354Z,11.10
2019-04-21T19:43:41.701Z,11.10
2019-04-21T19:46:10.006Z,10.87
2019-04-21T19:48:52.468Z,10.40
2019-04-21T19:51:10.592Z,10.67
2019-04-21T19:53:41.790Z,10.43
2019-04-21T19:56:00.130Z,10.60
2019-04-21T19:58:33.820Z,11.37
2019-04-21T20:01:01.630Z,11.60
2019-04-21T20:03:32.546Z,12.50
2019-04-21T20:06:11.702Z,12.57
2019-04-21T20:08:49.973Z,11.93
2019-04-21T20:11:26.317Z,14.20
2019-04-21T20:14:14.103Z,13.30
2019-04-21T20:16:25.784Z,15.80
2019-04-21T20:18:44.338Z,16.80
2019-04-21T20:21:08.291Z,15.47
2019-04-21T20:23:41.049Z,16.70
2019-04-21T20:26:10.422Z,16.93
2019-04-21T20:28:48.905Z,16.60
2019-04-21T20:31:31.534Z,16.90
2019-04-21T20:36:35.306Z,17.00
2019-04-21T20:38:55.074Z,16.07
2019-04-21T20:41:29.773Z,15.47
2019-04-21T20:44:06.225Z,15.93
2019-04-21T20:46:36.559Z,15.57
2019-04-21T20:49:04.632Z,15.97
2019-04-21T20:51:37.895Z,15.80
2019-04-21T20:54:13.726Z,16.50
2019-04-21T20:56:45.241Z,15.97
2019-04-21T20:59:13.879Z,15.30
2019-04-21T21:01:45.703Z,14.43
2019-04-21T21:04:12.963Z,15.60
2019-04-21T21:06:47.170Z,16.73
2019-04-21T21:09:14.145Z,15.27
2019-04-21T21:12:06.612Z,15.77
2019-04-21T21:14:25.870Z,15.33
2019-04-21T21:16:53.393Z,15.27
2019-04-21T21:19:39.722Z,15.10
2019-04-21T21:21:49.684Z,13.47
2019-04-21T21:24:31.043Z,15.07
2019-04-21T21:26:58.085Z,15.37
2019-04-21T21:29:26.407Z,14.97
2019-04-21T21:32:14.656Z,14.23
2019-04-21T21:34:38.856Z,14.50
2019-04-21T21:37:13.677Z,14.70
2019-04-21T21:39:40.645Z,14.73
2019-04-21T21:41:51.064Z,14.67
2019-04-21T21:44:22.780Z,15.03
2019-04-21T21:47:00.528Z,16.13
2019-04-21T21:49:34.936Z,16.67
2019-04-21T21:52:06.066Z,15.93
2019-04-21T21:54:23.629Z,17.10
2019-04-21T21:56:54.450Z,16.67
2019-04-21T21:59:28.357Z,16.93
2019-04-21T22:01:57.851Z,16.73
2019-04-21T22:04:30.693Z,16.97
2019-04-21T22:07:04.598Z,16.77
2019-04-21T22:09:30.506Z,16.10
2019-04-21T22:12:04.355Z,15.17
2019-04-21T22:14:36.913Z,15.37
2019-04-21T22:17:16.141Z,15.47
2019-04-21T22:19:58.144Z,15.33
2019-04-21T22:22:20.728Z,15.80
2019-04-21T22:24:49.275Z,16.23
2019-04-21T22:27:07.373Z,16.80
2019-04-21T22:29:41.830Z,16.43
2019-04-21T22:32:15.260Z,18.03
2019-04-21T22:34:48.639Z,15.70
2019-04-21T22:37:26.232Z,16.90
2019-04-21T22:39:59.623Z,16.20
2019-04-21T22:42:21.652Z,15.73
2019-04-21T22:44:46.164Z,16.13
2019-04-21T22:47:21.895Z,16.60
2019-04-21T22:49:48.636Z,16.57
2019-04-21T22:52:20.971Z,16.17
2019-04-21T22:54:50.617Z,16.70
2019-04-21T22:57:23.741Z,15.57
2019-04-21T22:59:59.342Z,16.40
2019-04-21T23:02:29.456Z,15.70
2019-04-21T23:04:58.164Z,16.00
2019-04-21T23:07:26.761Z,16.43
2019-04-21T23:09:57.098Z,16.27
2019-04-21T23:12:30.725Z,17.20
2019-04-21T23:15:05.762Z,16.83
2019-04-21T23:17:50.789Z,18.30
2019-04-21T23:20:17.285Z,17.50
2019-04-21T23:22:58.552Z,17.97
2019-04-21T23:25:22.342Z,18.07
2019-04-21T23:27:54.924Z,21.23
2019-04-21T23:30:35.823Z,17.60
2019-04-21T23:32:47.848Z,20.20
2019-04-21T23:35:18.609Z,22.70
2019-04-21T23:37:46.014Z,23.80
2019-04-21T23:40:17.641Z,23.70
2019-04-21T23:42:44.071Z,24.10
2019-04-21T23:45:14.121Z,26.40
2019-04-21T23:47:59.120Z,25.13
2019-04-21T23:50:25.147Z,24.10
2019-04-21T23:52:47.788Z,23.97
2019-04-21T23:55:17.237Z,24.87
2019-04-21T23:57:49.841Z,24.60
